首页
METAR-TAF:

METAR-TAF

机场 :

Friedman Memorial Airport

Hailey, 爱达荷州, 美国

纬度: 43-30N, 经度: 114-18W, 海拔: 1620米

当前天气观测

该预报发布于24分钟前的10:55 UTC
风速10节,风向西北
温度 4°C
湿度 75%
气压 1012 hPa
能見度: 16.1公里
天空无云

METAR: KSUN 151055Z AUTO 32010KT 10SM CLR 04/00 A2987 RMK AO2

时间: 05:19 (11:19 UTC)

预报

该预报发布于11小时和49分钟前的23:30 UTC
预报有效从15日的 00点(UTC)到 16日的 06点(UTC)
风速6节,风向多变
能見度: 10公里
散云层高于5000英尺
多云层高于10000英尺
附近有阵雨
从 15日的 0300点(UTC)
风速8节,风向西北
能見度: 10公里
散云层高于10000英尺
多云层高于20000英尺
从 15日的 1000点(UTC)
风速8节,风向西北
能見度: 10公里
散云层高于10000英尺
多云层高于20000英尺
从 15日的 1700点(UTC)
风速10节,风向西北,有时为18节阵风
能見度: 10公里
散云层高于5000英尺
多云层高于10000英尺
附近有阵雨
从 16日的 0300点(UTC)
风速10节,风向西北
能見度: 10公里
少量云层高于10000英尺
散云层高于20000英尺

TAF: KSUN 142330Z 1500/1606 VRB06KT P6SM VCSH SCT050 BKN100 FM150300 32008KT P6SM SCT100 BKN200 FM151000 32008KT P6SM SCT100 BKN200 FM151700 32010G18KT P6SM VCSH SCT050 BKN100 FM160300 32010KT P6SM FEW100 SCT200 AMD LTD TO CLD VIS AND WIND 1505/1513

超过4000个机场的气象观测和天气预报(METAR&TAF报告)。

可查询的气象台以黄色和红色小点在地图上表示。

将鼠标移到小点上方,可查看气象台名称。

然后点击查看天气观测和预报。

如需切换地图:点击带黑十字的绿色按钮放大地图;点击带横线的绿色按钮缩小地图;或者点击绿色箭头查看邻近地区的地图。


METAR-TAF: